Terminal Aerodrome Forecast
Issued by NWS

Current Version | Previous Version | Graphics & Text | Print | Product List | Glossary On
Versions: 1 2 3 4 5 6 7 8 9 10 11 12 13 14 15 16 17 18 19 20 21 22
000
FTUS41 KRLX 230900 AAA
TAFCKB
TAF AMD
KCKB 230905Z 2309/2406 00000KT 6SM -SHRA BKN060
     FM231300 18005KT P6SM BKN035
     FM231700 20008KT P6SM BKN040
     FM240000 15004KT P6SM BKN045=

USA.gov is the U.S. government's official web portal to all federal, state and local government web resources and services.